Wollongong, Australia
Current Conditions -  °F | °C
As of 6:30 AM on Monday 24 Nov 2014 (Local Time) from YSSY Reporting Station
Broken Clouds Broken Clouds  
Wind Chill: 22°   Ceiling: 1300
Heat Index: 22°   Visibility: 6mi
Dew Point: 19°   Wind: 16mph
Humidity: 83%   Direction: 130°SE
Pressure: 29.91"   Gusts: NA
Location:  34.43°S, 150.9°E
Report Text: YSSY 231930Z 13014KT 9999 FEW008 BKN013 BKN150 22/19 Q1013 FM2000 13012KT 9999 SCT015
Loading
Personal Weather Stations






























Interactive Weather Map New forecast layout! Learn more

10-Day Weather Forecast

Advertisements
Track Severe Weather on mobile